createdAt,value
2022-09-04T00:01:57.847Z,15.60
2022-09-04T00:04:38.747Z,15.40
2022-09-04T00:07:18.519Z,15.20
2022-09-04T00:10:01.245Z,15.40
2022-09-04T00:12:36.423Z,15.30
2022-09-04T00:15:13.616Z,15.50
2022-09-04T00:17:52.485Z,15.50
2022-09-04T00:20:38.168Z,15.60
2022-09-04T00:23:14.447Z,15.50
2022-09-04T00:25:53.342Z,15.40
2022-09-04T00:28:34.011Z,15.60
2022-09-04T00:31:14.775Z,15.70
2022-09-04T00:33:56.059Z,15.70
2022-09-04T00:36:29.207Z,15.40
2022-09-04T00:39:01.161Z,15.40
2022-09-04T00:41:32.255Z,15.30
2022-09-04T00:44:43.716Z,15.20
2022-09-04T00:47:35.067Z,15.30
2022-09-04T00:50:21.147Z,15.30
2022-09-04T00:53:26.678Z,15.40
2022-09-04T00:56:44.195Z,15.50
2022-09-04T00:59:27.558Z,15.50
2022-09-04T01:02:05.342Z,15.40
2022-09-04T01:04:43.123Z,15.40
2022-09-04T01:07:45.614Z,15.40
2022-09-04T01:10:29.018Z,15.50
2022-09-04T01:13:07.069Z,15.70
2022-09-04T01:15:42.802Z,15.80
2022-09-04T01:18:17.976Z,15.90
2022-09-04T01:21:23.310Z,15.80
2022-09-04T01:24:09.242Z,15.90
2022-09-04T01:26:48.859Z,15.80
2022-09-04T01:29:30.903Z,15.70
2022-09-04T01:32:10.154Z,15.70
2022-09-04T01:34:46.783Z,15.70
2022-09-04T01:37:31.531Z,15.80
2022-09-04T01:40:19.642Z,15.80
2022-09-04T01:42:55.881Z,15.80
2022-09-04T01:45:39.109Z,15.70
2022-09-04T01:48:10.408Z,15.80
2022-09-04T01:50:40.113Z,15.90
2022-09-04T01:53:14.689Z,15.90
2022-09-04T01:56:04.315Z,16.00
2022-09-04T01:58:42.717Z,16.00
2022-09-04T02:01:24.060Z,16.20
2022-09-04T02:04:00.443Z,16.30
2022-09-04T02:06:36.381Z,16.20
2022-09-04T02:09:18.772Z,16.20
2022-09-04T02:11:56.831Z,16.20
2022-09-04T02:14:36.598Z,16.10
2022-09-04T02:17:12.497Z,16.10
2022-09-04T02:20:08.371Z,16.20
2022-09-04T02:22:46.323Z,16.30
2022-09-04T02:25:25.894Z,16.40
2022-09-04T02:28:04.762Z,16.50
2022-09-04T02:30:43.380Z,16.40
2022-09-04T02:33:21.560Z,16.50
2022-09-04T02:35:56.344Z,16.50
2022-09-04T02:38:34.522Z,16.40
2022-09-04T02:41:11.591Z,16.50
2022-09-04T02:43:59.603Z,16.40
2022-09-04T02:46:39.954Z,16.40
2022-09-04T02:49:19.651Z,16.30
2022-09-04T02:52:08.089Z,16.30
2022-09-04T02:54:52.434Z,16.30
2022-09-04T02:57:34.483Z,16.30
2022-09-04T03:00:09.607Z,16.30
2022-09-04T03:02:46.357Z,16.50
2022-09-04T03:05:21.438Z,16.50
2022-09-04T03:08:03.319Z,16.60
2022-09-04T03:10:36.489Z,16.60
2022-09-04T03:13:13.992Z,16.60
2022-09-04T03:15:46.685Z,16.60
2022-09-04T03:18:25.301Z,16.60
2022-09-04T03:20:59.366Z,16.60
2022-09-04T03:23:40.202Z,16.70
2022-09-04T03:26:22.636Z,16.60
2022-09-04T03:29:02.735Z,16.60
2022-09-04T03:31:39.581Z,16.50
2022-09-04T03:34:33.051Z,16.50
2022-09-04T03:37:26.883Z,16.60
2022-09-04T03:40:14.045Z,16.60
2022-09-04T03:43:03.427Z,16.60
2022-09-04T03:45:43.120Z,16.60
2022-09-04T03:48:34.960Z,16.60
2022-09-04T03:51:17.163Z,16.60
2022-09-04T03:53:50.794Z,16.60
2022-09-04T03:56:49.773Z,16.60
2022-09-04T03:59:33.194Z,16.60
2022-09-04T04:02:11.047Z,16.60
2022-09-04T04:05:14.994Z,16.70
2022-09-04T04:07:54.672Z,16.60
2022-09-04T04:10:33.792Z,16.70
2022-09-04T04:13:36.962Z,16.80
2022-09-04T04:16:31.097Z,16.80
2022-09-04T04:19:16.803Z,16.80
2022-09-04T04:22:04.766Z,16.70
2022-09-04T04:25:06.789Z,16.70
2022-09-04T04:28:01.591Z,16.70
2022-09-04T04:30:35.145Z,16.70
2022-09-04T04:33:20.294Z,16.70
2022-09-04T04:35:57.889Z,16.80
2022-09-04T04:38:59.675Z,16.80
2022-09-04T04:42:07.598Z,16.70
2022-09-04T04:45:22.780Z,16.70
2022-09-04T04:48:38.394Z,16.70
2022-09-04T04:51:24.545Z,16.70
2022-09-04T04:53:59.751Z,16.80
2022-09-04T04:56:35.899Z,16.80
2022-09-04T04:59:20.582Z,17.00
2022-09-04T05:02:00.522Z,16.90
2022-09-04T05:04:42.872Z,16.90
2022-09-04T05:07:22.366Z,17.00
2022-09-04T05:09:58.140Z,16.90
2022-09-04T05:12:39.211Z,16.70
2022-09-04T05:15:19.179Z,16.70
2022-09-04T05:17:56.532Z,16.70
2022-09-04T05:20:42.252Z,16.70
2022-09-04T05:23:34.227Z,16.80
2022-09-04T05:26:13.223Z,16.70
2022-09-04T05:28:54.668Z,16.70
2022-09-04T05:31:38.954Z,16.80
2022-09-04T05:34:19.183Z,16.80
2022-09-04T05:37:01.375Z,16.70
2022-09-04T05:39:33.522Z,16.70
2022-09-04T05:42:33.158Z,16.50
2022-09-04T05:45:12.595Z,16.70
2022-09-04T05:47:56.817Z,16.80
2022-09-04T05:50:51.692Z,16.80
2022-09-04T05:54:04.379Z,16.80
2022-09-04T05:56:55.312Z,16.90
2022-09-04T05:59:43.972Z,16.90
2022-09-04T06:02:50.019Z,16.90
2022-09-04T06:05:29.020Z,16.90
2022-09-04T06:08:10.113Z,16.90
2022-09-04T06:11:00.085Z,16.90
2022-09-04T06:13:58.784Z,16.80
2022-09-04T06:17:05.643Z,16.80
2022-09-04T06:19:51.393Z,16.80
2022-09-04T06:23:04.448Z,16.80
2022-09-04T06:26:13.032Z,16.80
2022-09-04T06:29:22.296Z,16.80
2022-09-04T06:32:24.771Z,16.90
2022-09-04T06:35:16.440Z,16.90
2022-09-04T06:37:58.819Z,17.00
2022-09-04T06:40:45.949Z,17.00
2022-09-04T06:43:29.757Z,17.10
2022-09-04T06:46:11.281Z,16.90
2022-09-04T06:48:53.350Z,17.00
2022-09-04T06:51:48.661Z,17.00
2022-09-04T06:54:32.510Z,17.10
2022-09-04T06:57:35.302Z,17.10
2022-09-04T07:00:09.288Z,17.20
2022-09-04T07:03:09.079Z,17.20
2022-09-04T07:05:50.806Z,17.40
2022-09-04T07:08:39.562Z,17.30
2022-09-04T07:11:35.034Z,17.20
2022-09-04T07:14:39.033Z,17.30
2022-09-04T07:17:16.423Z,17.30
2022-09-04T07:20:07.436Z,17.30
2022-09-04T07:23:03.865Z,17.40
2022-09-04T07:25:45.390Z,17.30
2022-09-04T07:28:30.766Z,17.10
2022-09-04T07:31:05.908Z,17.10
2022-09-04T07:33:41.957Z,17.10
2022-09-04T07:36:17.003Z,17.20
2022-09-04T07:38:52.123Z,17.30
2022-09-04T07:41:28.242Z,17.30
2022-09-04T07:44:04.521Z,17.40
2022-09-04T07:46:41.435Z,17.30
2022-09-04T07:49:17.290Z,17.40
2022-09-04T07:51:49.732Z,17.50
2022-09-04T07:54:52.765Z,17.60
2022-09-04T07:58:12.856Z,17.80
2022-09-04T08:00:52.780Z,17.70
2022-09-04T08:03:38.068Z,17.70
2022-09-04T08:06:29.727Z,17.60
2022-09-04T08:09:23.691Z,17.80
2022-09-04T08:12:25.613Z,17.90
2022-09-04T08:15:15.724Z,18.00
2022-09-04T08:18:21.277Z,18.20
2022-09-04T08:21:02.550Z,18.20
2022-09-04T08:24:28.364Z,18.00
2022-09-04T08:27:13.821Z,17.90
2022-09-04T08:30:07.337Z,18.10
2022-09-04T08:33:00.765Z,18.10
2022-09-04T08:35:34.505Z,18.10
2022-09-04T08:38:36.542Z,18.00
2022-09-04T08:42:07.844Z,18.00
2022-09-04T08:45:16.358Z,18.20
2022-09-04T08:48:30.804Z,18.20
2022-09-04T08:52:06.498Z,18.30
2022-09-04T08:55:07.264Z,18.20
2022-09-04T08:58:24.324Z,18.20
2022-09-04T09:01:20.396Z,18.40
2022-09-04T09:04:49.679Z,18.20
2022-09-04T09:07:49.235Z,18.30
2022-09-04T09:10:56.603Z,18.40
2022-09-04T09:13:58.706Z,18.50
2022-09-04T09:16:44.144Z,18.50
2022-09-04T09:19:22.773Z,18.60
2022-09-04T09:22:11.331Z,18.70
2022-09-04T09:25:20.487Z,18.50
2022-09-04T09:28:33.637Z,18.70
2022-09-04T09:31:49.014Z,18.70
2022-09-04T09:35:18.738Z,18.70
2022-09-04T09:38:17.056Z,18.80
2022-09-04T09:41:33.662Z,18.80
2022-09-04T09:44:45.626Z,19.10
2022-09-04T09:47:46.276Z,19.10
2022-09-04T09:50:50.325Z,19.30
2022-09-04T09:54:05.186Z,19.40
2022-09-04T09:57:14.190Z,19.50
2022-09-04T10:00:10.346Z,19.50
2022-09-04T10:03:32.393Z,19.60
2022-09-04T10:06:57.202Z,19.80
2022-09-04T10:10:04.999Z,19.60
2022-09-04T10:13:07.398Z,19.90
2022-09-04T10:16:06.250Z,19.90
2022-09-04T10:19:16.453Z,20.00
2022-09-04T10:22:37.199Z,20.20
2022-09-04T10:25:38.746Z,20.10
2022-09-04T10:29:10.926Z,20.10
2022-09-04T10:32:35.842Z,20.00
2022-09-04T10:35:25.147Z,20.20
2022-09-04T10:38:30.421Z,20.20
2022-09-04T10:41:52.224Z,20.30
2022-09-04T10:44:45.945Z,20.10
2022-09-04T10:47:37.446Z,20.10
2022-09-04T10:50:26.763Z,20.40
2022-09-04T10:53:20.631Z,20.50
2022-09-04T10:56:16.175Z,20.90
2022-09-04T10:59:21.172Z,21.10
2022-09-04T11:02:35.840Z,21.60
2022-09-04T11:05:38.848Z,22.40
2022-09-04T11:08:40.191Z,23.20
2022-09-04T11:11:28.945Z,23.80
2022-09-04T11:14:21.363Z,24.40
2022-09-04T11:17:44.438Z,24.80
2022-09-04T11:20:52.201Z,25.50
2022-09-04T11:24:06.718Z,25.30
2022-09-04T11:27:19.882Z,25.30
2022-09-04T11:30:02.323Z,24.80
2022-09-04T11:33:06.612Z,24.70
2022-09-04T11:36:18.932Z,24.60
2022-09-04T11:39:43.417Z,24.10
2022-09-04T11:42:40.061Z,23.50
2022-09-04T11:45:42.005Z,23.20
2022-09-04T11:49:13.339Z,23.10
2022-09-04T11:52:04.998Z,22.80
2022-09-04T11:55:07.207Z,22.80
2022-09-04T11:58:04.645Z,22.80
2022-09-04T12:00:44.103Z,22.90
2022-09-04T12:03:53.159Z,23.00
2022-09-04T12:06:37.329Z,23.10
2022-09-04T12:10:02.362Z,23.10
2022-09-04T12:13:14.568Z,23.30
2022-09-04T12:16:27.223Z,23.70
2022-09-04T12:19:42.253Z,23.60
2022-09-04T12:22:44.566Z,23.40
2022-09-04T12:25:51.245Z,23.20
2022-09-04T12:28:59.641Z,23.40
2022-09-04T12:32:07.281Z,23.60
2022-09-04T12:35:31.628Z,23.70
2022-09-04T12:38:50.320Z,23.90
2022-09-04T12:41:21.365Z,23.90
2022-09-04T12:44:05.147Z,23.80
2022-09-04T12:46:56.833Z,23.70
2022-09-04T12:49:58.764Z,23.70
2022-09-04T12:52:46.516Z,23.70
2022-09-04T12:55:22.855Z,23.80
2022-09-04T12:58:07.765Z,23.80
2022-09-04T13:00:48.512Z,23.90
2022-09-04T13:03:30.503Z,23.90
2022-09-04T13:06:17.095Z,24.00
2022-09-04T13:09:08.235Z,24.30
2022-09-04T13:11:51.803Z,24.50
2022-09-04T13:14:45.567Z,24.60
2022-09-04T13:17:23.282Z,24.70
2022-09-04T13:20:01.510Z,24.60
2022-09-04T13:22:50.016Z,24.70
2022-09-04T13:25:31.522Z,24.70
2022-09-04T13:28:12.172Z,24.70
2022-09-04T13:30:57.158Z,24.70
2022-09-04T13:33:39.804Z,24.70
2022-09-04T13:36:25.776Z,24.70
2022-09-04T13:39:47.075Z,24.60
2022-09-04T13:43:04.849Z,24.50
2022-09-04T13:45:40.365Z,24.60
2022-09-04T13:48:15.503Z,24.70
2022-09-04T13:50:49.657Z,24.80
2022-09-04T13:53:24.942Z,24.90
2022-09-04T13:55:57.333Z,24.80
2022-09-04T13:58:31.167Z,24.90
2022-09-04T14:01:03.021Z,25.10
2022-09-04T14:03:46.068Z,25.20
2022-09-04T14:06:17.414Z,25.30
2022-09-04T14:09:05.054Z,25.30
2022-09-04T14:12:15.502Z,25.50
2022-09-04T14:15:28.627Z,25.50
2022-09-04T14:18:13.456Z,25.60
2022-09-04T14:20:57.967Z,25.70
2022-09-04T14:23:41.401Z,25.70
2022-09-04T14:26:25.307Z,25.60
2022-09-04T14:29:05.157Z,25.60
2022-09-04T14:31:46.697Z,25.60
2022-09-04T14:34:28.294Z,25.60
2022-09-04T14:37:08.161Z,25.70
2022-09-04T14:39:42.584Z,25.80
2022-09-04T14:42:33.525Z,25.80
2022-09-04T14:45:25.702Z,25.80
2022-09-04T14:47:57.403Z,25.80
2022-09-04T14:50:29.418Z,25.80
2022-09-04T14:53:03.614Z,25.80
2022-09-04T14:55:34.862Z,25.70
2022-09-04T14:58:11.827Z,25.70
2022-09-04T15:00:59.567Z,25.80
2022-09-04T15:03:34.942Z,25.80
2022-09-04T15:06:16.076Z,25.80
2022-09-04T15:08:46.364Z,25.80
2022-09-04T15:11:31.683Z,25.80
2022-09-04T15:14:06.044Z,25.80
2022-09-04T15:16:50.621Z,25.80
2022-09-04T15:19:37.167Z,25.90
2022-09-04T15:22:10.854Z,25.90
2022-09-04T15:24:54.327Z,25.90
2022-09-04T15:27:28.934Z,25.90
2022-09-04T15:30:06.930Z,25.80
2022-09-04T15:32:39.733Z,25.90
2022-09-04T15:35:15.339Z,25.80
2022-09-04T15:37:48.310Z,25.70
2022-09-04T15:40:30.597Z,25.70
2022-09-04T15:43:11.638Z,25.80
2022-09-04T15:45:47.506Z,25.80
2022-09-04T15:48:35.501Z,25.90
2022-09-04T15:51:16.066Z,25.90
2022-09-04T15:53:54.129Z,25.90
2022-09-04T15:56:37.006Z,25.90
2022-09-04T15:59:16.090Z,26.00
2022-09-04T16:01:51.755Z,26.00
2022-09-04T16:04:30.577Z,26.00
2022-09-04T16:07:20.486Z,26.00
2022-09-04T16:09:55.691Z,25.90
2022-09-04T16:12:30.666Z,26.00
2022-09-04T16:15:05.331Z,25.90
2022-09-04T16:17:43.593Z,25.90
2022-09-04T16:20:22.030Z,25.90
2022-09-04T16:22:58.884Z,25.90
2022-09-04T16:25:30.029Z,25.90
2022-09-04T16:28:08.098Z,25.80
2022-09-04T16:30:41.633Z,25.80
2022-09-04T16:33:27.785Z,25.80
2022-09-04T16:36:04.391Z,25.70
2022-09-04T16:38:47.364Z,25.60
2022-09-04T16:41:25.434Z,25.60
2022-09-04T16:44:25.659Z,25.50
2022-09-04T16:47:04.508Z,25.50
2022-09-04T16:49:41.122Z,25.50
2022-09-04T16:52:31.800Z,25.40
2022-09-04T16:55:09.991Z,25.40
2022-09-04T16:57:45.487Z,25.30
2022-09-04T17:00:17.656Z,25.30
2022-09-04T17:02:48.690Z,25.20
2022-09-04T17:05:28.062Z,25.10
2022-09-04T17:08:04.891Z,25.10
2022-09-04T17:10:42.314Z,24.80
2022-09-04T17:13:19.365Z,24.70
2022-09-04T17:15:58.756Z,24.60
2022-09-04T17:18:30.187Z,24.60
2022-09-04T17:26:04.860Z,24.50
2022-09-04T17:28:58.636Z,24.40
2022-09-04T17:29:15.420Z,24.20
2022-09-04T17:29:51.019Z,23.90
2022-09-04T17:33:39.555Z,23.70
2022-09-04T17:40:39.131Z,23.70
2022-09-04T17:40:46.391Z,23.50
2022-09-04T17:41:39.957Z,23.40
2022-09-04T17:44:32.586Z,23.30
2022-09-04T17:47:16.324Z,23.30
2022-09-04T17:49:50.614Z,23.30
2022-09-04T17:52:26.828Z,23.10
2022-09-04T17:54:59.517Z,23.00
2022-09-04T17:57:46.332Z,22.90
2022-09-04T18:00:21.335Z,22.80
2022-09-04T18:02:58.173Z,22.70
2022-09-04T18:05:34.652Z,22.60
2022-09-04T18:08:11.132Z,22.70
2022-09-04T18:10:53.548Z,22.60
2022-09-04T18:13:37.626Z,22.60
2022-09-04T18:16:34.231Z,22.50
2022-09-04T18:19:17.005Z,22.50
2022-09-04T18:22:07.769Z,22.30
2022-09-04T18:24:43.717Z,22.30
2022-09-04T18:27:18.365Z,22.20
2022-09-04T18:35:09.546Z,22.20
2022-09-04T18:37:19.632Z,22.10
2022-09-04T18:37:23.209Z,22.00
2022-09-04T18:39:09.212Z,21.90
2022-09-04T18:46:28.739Z,21.90
2022-09-04T18:50:29.132Z,21.90
2022-09-04T18:50:35.456Z,21.70
2022-09-04T18:51:14.628Z,21.50
2022-09-04T18:53:36.581Z,21.50
2022-09-04T18:56:20.279Z,21.40
2022-09-04T18:59:00.660Z,21.40
2022-09-04T19:01:41.528Z,21.30
2022-09-04T19:04:44.638Z,21.30
2022-09-04T19:07:27.357Z,21.10
2022-09-04T19:10:17.634Z,21.10
2022-09-04T19:13:05.041Z,21.10
2022-09-04T19:15:50.740Z,20.90
2022-09-04T19:18:27.371Z,20.90
2022-09-04T19:21:37.276Z,20.80
2022-09-04T19:24:21.167Z,20.70
2022-09-04T19:27:27.223Z,20.70
2022-09-04T19:30:18.506Z,20.70
2022-09-04T19:33:06.801Z,20.50
2022-09-04T19:35:43.586Z,20.50
2022-09-04T19:43:02.250Z,20.40
2022-09-04T19:46:06.999Z,20.30
2022-09-04T19:46:11.593Z,20.30
2022-09-04T19:47:28.678Z,20.30
2022-09-04T19:53:19.746Z,20.30
2022-09-04T19:53:30.162Z,20.20
2022-09-04T19:56:10.278Z,20.10
2022-09-04T19:58:44.190Z,20.10
2022-09-04T20:01:19.134Z,20.10
2022-09-04T20:03:51.950Z,20.00
2022-09-04T20:06:30.041Z,20.00
2022-09-04T20:09:08.738Z,19.90
2022-09-04T20:11:45.825Z,20.00
2022-09-04T20:14:22.910Z,19.90
2022-09-04T20:17:09.801Z,19.80
2022-09-04T20:19:44.832Z,19.80
2022-09-04T20:22:30.040Z,19.70
2022-09-04T20:25:29.185Z,19.80
2022-09-04T20:28:12.205Z,19.70
2022-09-04T20:30:47.830Z,19.60
2022-09-04T20:33:21.297Z,19.60
2022-09-04T20:35:59.723Z,19.50
2022-09-04T20:38:37.597Z,19.60
2022-09-04T20:41:20.106Z,19.50
2022-09-04T20:43:58.093Z,19.40
2022-09-04T20:52:42.529Z,19.40
2022-09-04T20:52:56.683Z,19.40
2022-09-04T20:53:12.211Z,19.40
2022-09-04T20:55:54.682Z,19.30
2022-09-04T21:03:05.923Z,19.30
2022-09-04T21:03:18.784Z,19.20
2022-09-04T21:04:47.529Z,19.30
2022-09-04T21:07:29.648Z,19.10
2022-09-04T21:10:14.444Z,19.20
2022-09-04T21:12:54.135Z,19.10
2022-09-04T21:15:51.515Z,19.20
2022-09-04T21:19:06.470Z,19.10
2022-09-04T21:22:08.230Z,19.20
2022-09-04T21:25:30.664Z,19.00
2022-09-04T21:28:28.242Z,19.00
2022-09-04T21:31:12.528Z,18.90
2022-09-04T21:33:50.669Z,18.90
2022-09-04T21:36:29.293Z,18.90
2022-09-04T21:39:57.699Z,18.90
2022-09-04T21:42:53.345Z,19.00
2022-09-04T21:45:38.483Z,19.00
2022-09-04T21:48:31.644Z,18.90
2022-09-04T21:51:28.938Z,18.80
2022-09-04T21:56:09.577Z,18.80
2022-09-04T22:02:31.399Z,18.80
2022-09-04T22:02:45.248Z,18.80
2022-09-04T22:04:18.530Z,18.80
2022-09-04T22:08:13.313Z,18.80
2022-09-04T22:13:35.299Z,18.80
2022-09-04T22:13:41.160Z,18.70
2022-09-04T22:16:13.467Z,18.70
2022-09-04T22:19:16.239Z,18.70
2022-09-04T22:22:03.891Z,18.70
2022-09-04T22:25:04.212Z,18.70
2022-09-04T22:28:09.246Z,18.60
2022-09-04T22:30:57.330Z,18.60
2022-09-04T22:34:15.023Z,18.50
2022-09-04T22:37:21.025Z,18.40
2022-09-04T22:40:13.460Z,18.40
2022-09-04T22:42:49.172Z,18.50
2022-09-04T22:45:45.366Z,18.40
2022-09-04T22:48:47.286Z,18.30
2022-09-04T22:51:52.616Z,18.40
2022-09-04T22:54:49.401Z,18.30
2022-09-04T22:57:25.038Z,18.20
2022-09-04T23:00:09.702Z,18.30
2022-09-04T23:03:08.915Z,18.20
2022-09-04T23:08:58.536Z,18.30
2022-09-04T23:13:54.054Z,18.20
2022-09-04T23:14:02.711Z,18.20
2022-09-04T23:15:53.928Z,18.10
2022-09-04T23:24:24.656Z,18.10
2022-09-04T23:26:43.387Z,18.20
2022-09-04T23:26:43.932Z,18.10
2022-09-04T23:28:23.563Z,18.00
2022-09-04T23:31:12.979Z,18.00
2022-09-04T23:34:36.929Z,17.90
2022-09-04T23:37:32.152Z,17.90
2022-09-04T23:40:36.708Z,17.80
2022-09-04T23:43:45.428Z,17.80
2022-09-04T23:46:50.597Z,17.80
2022-09-04T23:49:58.943Z,17.80
2022-09-04T23:56:31.453Z,17.90
2022-09-04T23:59:35.159Z,17.80
